createdAt,value
2022-10-17T00:01:18.721Z,2.20
2022-10-17T00:03:46.962Z,2.20
2022-10-17T00:06:15.878Z,2.00
2022-10-17T00:08:44.640Z,2.50
2022-10-17T00:11:15.681Z,2.00
2022-10-17T00:13:43.853Z,1.90
2022-10-17T00:16:12.047Z,2.30
2022-10-17T00:18:41.631Z,2.40
2022-10-17T00:21:16.854Z,2.37
2022-10-17T00:23:45.059Z,2.30
2022-10-17T00:26:13.407Z,2.23
2022-10-17T00:28:41.616Z,3.13
2022-10-17T00:31:11.993Z,2.30
2022-10-17T00:33:41.544Z,2.50
2022-10-17T00:36:11.019Z,2.43
2022-10-17T00:38:39.211Z,2.60
2022-10-17T00:41:09.470Z,2.50
2022-10-17T00:43:52.077Z,2.10
2022-10-17T00:46:20.262Z,2.33
2022-10-17T00:48:49.951Z,2.20
2022-10-17T00:51:18.400Z,2.43
2022-10-17T00:53:46.651Z,2.07
2022-10-17T00:56:14.726Z,2.10
2022-10-17T00:58:45.300Z,2.30
2022-10-17T01:01:13.479Z,2.30
2022-10-17T01:03:42.068Z,2.20
2022-10-17T01:06:11.581Z,2.20
2022-10-17T01:08:39.790Z,2.23
2022-10-17T01:11:13.012Z,1.77
2022-10-17T01:13:43.831Z,1.80
2022-10-17T01:16:14.542Z,2.20
2022-10-17T01:18:52.765Z,2.03
2022-10-17T01:21:34.549Z,2.03
2022-10-17T01:24:21.119Z,2.00
2022-10-17T01:27:00.496Z,2.00
2022-10-17T01:29:53.534Z,2.07
2022-10-17T01:32:24.396Z,2.17
2022-10-17T01:34:56.050Z,1.93
2022-10-17T01:37:28.006Z,1.70
2022-10-17T01:39:59.237Z,1.90
2022-10-17T01:42:28.877Z,1.63
2022-10-17T01:44:59.032Z,1.80
2022-10-17T01:47:30.220Z,2.00
2022-10-17T01:49:59.709Z,1.83
2022-10-17T01:52:28.980Z,1.80
2022-10-17T01:54:58.406Z,1.90
2022-10-17T01:57:32.864Z,1.60
2022-10-17T02:00:01.168Z,2.43
2022-10-17T02:02:31.652Z,1.70
2022-10-17T02:07:28.526Z,1.70
2022-10-17T02:09:56.907Z,1.60
2022-10-17T02:12:35.482Z,1.60
2022-10-17T02:15:18.072Z,1.50
2022-10-17T02:17:50.889Z,1.60
2022-10-17T02:20:23.281Z,1.80
2022-10-17T02:22:54.201Z,1.93
2022-10-17T02:25:25.347Z,1.73
2022-10-17T02:27:57.772Z,1.53
2022-10-17T02:30:30.550Z,1.77
2022-10-17T02:33:02.426Z,1.60
2022-10-17T02:35:32.581Z,2.07
2022-10-17T02:38:00.792Z,1.70
2022-10-17T02:40:29.034Z,1.40
2022-10-17T02:43:02.005Z,1.50
2022-10-17T02:45:35.833Z,1.37
2022-10-17T02:48:08.762Z,1.40
2022-10-17T02:50:44.516Z,1.37
2022-10-17T02:53:15.743Z,1.93
2022-10-17T02:55:47.214Z,1.50
2022-10-17T02:58:21.722Z,1.60
2022-10-17T03:00:50.475Z,1.50
2022-10-17T03:03:24.672Z,1.70
2022-10-17T03:05:53.408Z,1.57
2022-10-17T03:08:25.469Z,1.50
2022-10-17T03:10:54.231Z,1.40
2022-10-17T03:13:23.732Z,1.30
2022-10-17T03:15:52.303Z,1.43
2022-10-17T03:18:20.753Z,1.60
2022-10-17T03:20:54.853Z,1.50
2022-10-17T03:23:23.215Z,1.43
2022-10-17T03:25:52.133Z,1.50
2022-10-17T03:28:20.921Z,1.40
2022-10-17T03:30:50.365Z,1.53
2022-10-17T03:33:18.536Z,1.70
2022-10-17T03:35:46.869Z,1.30
2022-10-17T03:38:16.467Z,1.33
2022-10-17T03:40:45.077Z,1.30
2022-10-17T03:43:13.329Z,1.40
2022-10-17T03:45:43.746Z,1.40
2022-10-17T03:48:11.851Z,1.40
2022-10-17T03:50:40.008Z,1.20
2022-10-17T03:53:09.327Z,1.37
2022-10-17T03:55:39.719Z,1.20
2022-10-17T03:58:07.988Z,1.33
2022-10-17T04:00:37.094Z,1.17
2022-10-17T04:03:05.381Z,1.30
2022-10-17T04:05:33.828Z,1.30
2022-10-17T04:08:04.653Z,1.27
2022-10-17T04:11:01.183Z,1.40
2022-10-17T04:13:29.544Z,1.70
2022-10-17T04:15:57.827Z,1.33
2022-10-17T04:18:26.576Z,1.73
2022-10-17T04:20:54.793Z,1.50
2022-10-17T04:23:23.311Z,1.27
2022-10-17T04:25:57.960Z,1.23
2022-10-17T04:28:28.621Z,1.03
2022-10-17T04:31:00.155Z,1.17
2022-10-17T04:33:33.765Z,1.30
2022-10-17T04:36:02.341Z,1.23
2022-10-17T04:38:31.663Z,1.37
2022-10-17T04:41:00.105Z,1.30
2022-10-17T04:43:29.749Z,1.30
2022-10-17T04:45:58.662Z,1.27
2022-10-17T04:48:26.801Z,1.30
2022-10-17T04:50:55.882Z,1.90
2022-10-17T04:53:42.886Z,1.40
2022-10-17T04:56:11.856Z,1.37
2022-10-17T04:58:42.058Z,1.37
2022-10-17T05:01:12.247Z,1.60
2022-10-17T05:03:45.870Z,1.33
2022-10-17T05:06:14.941Z,1.47
2022-10-17T05:08:46.668Z,1.40
2022-10-17T05:11:19.204Z,1.20
2022-10-17T05:13:52.737Z,1.10
2022-10-17T05:16:20.917Z,1.20
2022-10-17T05:18:53.042Z,1.30
2022-10-17T05:21:22.026Z,1.60
2022-10-17T05:23:50.333Z,1.50
2022-10-17T05:26:19.171Z,1.57
2022-10-17T05:28:47.336Z,1.47
2022-10-17T05:31:17.435Z,1.30
2022-10-17T05:33:45.710Z,1.57
2022-10-17T05:36:14.997Z,1.63
2022-10-17T05:38:43.189Z,1.30
2022-10-17T05:41:12.691Z,1.27
2022-10-17T05:43:40.888Z,1.37
2022-10-17T05:46:09.026Z,1.70
2022-10-17T05:48:39.098Z,1.53
2022-10-17T05:51:09.165Z,1.70
2022-10-17T05:53:38.981Z,1.70
2022-10-17T05:56:11.484Z,1.67
2022-10-17T05:59:00.795Z,1.80
2022-10-17T06:01:52.174Z,1.60
2022-10-17T06:04:22.599Z,1.30
2022-10-17T06:06:50.848Z,1.57
2022-10-17T06:09:19.504Z,1.50
2022-10-17T06:11:50.407Z,1.50
2022-10-17T06:14:18.845Z,1.50
2022-10-17T06:16:49.493Z,1.40
2022-10-17T06:19:17.726Z,1.50
2022-10-17T06:21:49.069Z,1.60
2022-10-17T06:24:23.822Z,1.80
2022-10-17T06:27:10.992Z,2.03
2022-10-17T06:30:17.235Z,1.60
2022-10-17T06:32:57.077Z,1.93
2022-10-17T06:35:26.175Z,1.73
2022-10-17T06:37:55.634Z,1.73
2022-10-17T06:40:25.040Z,2.30
2022-10-17T06:42:53.271Z,3.40
2022-10-17T06:45:39.979Z,2.10
2022-10-17T06:48:30.921Z,1.93
2022-10-17T06:51:36.254Z,3.13
2022-10-17T06:54:08.140Z,2.33
2022-10-17T06:56:50.925Z,1.80
2022-10-17T06:59:47.601Z,2.40
2022-10-17T07:02:23.695Z,1.90
2022-10-17T07:04:53.817Z,1.90
2022-10-17T07:07:21.963Z,2.87
2022-10-17T07:09:52.640Z,3.37
2022-10-17T07:12:22.558Z,2.23
2022-10-17T07:14:51.383Z,1.50
2022-10-17T07:17:20.991Z,1.53
2022-10-17T07:19:49.145Z,1.40
2022-10-17T07:22:18.010Z,1.43
2022-10-17T07:27:36.597Z,1.60
2022-10-17T07:30:06.298Z,1.40
2022-10-17T07:32:37.978Z,1.40
2022-10-17T07:35:07.157Z,1.70
2022-10-17T07:37:35.636Z,1.60
2022-10-17T07:40:04.029Z,1.40
2022-10-17T07:42:32.142Z,1.40
2022-10-17T07:45:01.749Z,1.87
2022-10-17T07:47:35.649Z,1.83
2022-10-17T07:50:03.974Z,1.30
2022-10-17T07:52:32.527Z,1.20
2022-10-17T07:55:00.879Z,1.50
2022-10-17T07:57:29.051Z,1.57
2022-10-17T07:59:57.283Z,1.30
2022-10-17T08:02:27.945Z,1.40
2022-10-17T08:04:56.226Z,1.63
2022-10-17T08:07:29.187Z,1.57
2022-10-17T08:09:57.723Z,1.60
2022-10-17T08:12:26.233Z,1.30
2022-10-17T08:14:54.598Z,1.43
2022-10-17T08:17:22.891Z,1.63
2022-10-17T08:19:52.665Z,1.50
2022-10-17T08:22:20.773Z,1.20
2022-10-17T08:24:48.981Z,1.60
2022-10-17T08:27:21.577Z,1.80
2022-10-17T08:29:52.835Z,1.80
2022-10-17T08:32:21.270Z,1.80
2022-10-17T08:34:49.391Z,1.60
2022-10-17T08:37:18.962Z,1.47
2022-10-17T08:39:47.005Z,1.43
2022-10-17T08:42:50.006Z,1.50
2022-10-17T08:45:21.310Z,1.83
2022-10-17T08:47:53.427Z,1.20
2022-10-17T08:50:25.706Z,1.40
2022-10-17T08:52:55.944Z,1.50
2022-10-17T08:55:30.937Z,1.80
2022-10-17T08:57:59.337Z,1.20
2022-10-17T09:00:27.754Z,1.40
2022-10-17T09:03:03.413Z,1.30
2022-10-17T09:05:39.018Z,1.57
2022-10-17T09:08:14.359Z,1.40
2022-10-17T09:10:48.795Z,1.40
2022-10-17T09:13:23.294Z,1.40
2022-10-17T09:16:01.402Z,1.00
2022-10-17T09:18:31.547Z,1.43
2022-10-17T09:21:11.492Z,1.30
2022-10-17T09:23:43.828Z,1.03
2022-10-17T09:26:12.013Z,1.20
2022-10-17T09:28:41.606Z,1.30
2022-10-17T09:31:13.922Z,1.33
2022-10-17T09:33:53.984Z,1.10
2022-10-17T09:36:24.991Z,1.43
2022-10-17T09:38:55.818Z,1.27
2022-10-17T09:41:44.446Z,1.50
2022-10-17T09:44:21.892Z,1.37
2022-10-17T09:47:20.473Z,1.30
2022-10-17T09:49:49.322Z,1.43
2022-10-17T09:52:19.026Z,1.27
2022-10-17T09:54:50.195Z,1.37
2022-10-17T09:57:18.953Z,1.07
2022-10-17T09:59:48.510Z,1.20
2022-10-17T10:02:19.721Z,1.20
2022-10-17T10:05:07.094Z,1.50
2022-10-17T10:07:37.478Z,1.30
2022-10-17T10:10:08.952Z,1.70
2022-10-17T10:12:38.311Z,1.20
2022-10-17T10:15:32.185Z,1.60
2022-10-17T10:18:00.308Z,1.23
2022-10-17T10:20:31.945Z,1.33
2022-10-17T10:23:14.203Z,1.33
2022-10-17T10:25:55.212Z,1.17
2022-10-17T10:28:24.995Z,1.47
2022-10-17T10:30:53.110Z,1.27
2022-10-17T10:33:21.650Z,1.30
2022-10-17T10:36:01.685Z,1.27
2022-10-17T10:38:29.969Z,1.60
2022-10-17T10:41:04.147Z,1.80
2022-10-17T10:43:35.267Z,1.50
2022-10-17T10:46:03.934Z,1.40
2022-10-17T10:48:33.730Z,1.57
2022-10-17T10:51:02.970Z,1.30
2022-10-17T10:53:38.634Z,1.63
2022-10-17T10:56:11.179Z,1.27
2022-10-17T10:58:44.189Z,1.30
2022-10-17T11:01:20.031Z,1.30
2022-10-17T11:03:55.399Z,1.40
2022-10-17T11:06:25.152Z,1.90
2022-10-17T11:09:00.303Z,1.40
2022-10-17T11:11:33.617Z,1.70
2022-10-17T11:14:03.322Z,1.47
2022-10-17T11:16:34.412Z,1.63
2022-10-17T11:19:08.371Z,1.70
2022-10-17T11:24:18.177Z,1.20
2022-10-17T11:26:50.992Z,1.57
2022-10-17T11:29:19.538Z,1.40
2022-10-17T11:31:49.370Z,1.47
2022-10-17T11:34:20.606Z,1.80
2022-10-17T11:36:57.926Z,1.40
2022-10-17T11:39:30.457Z,1.50
2022-10-17T11:42:03.470Z,1.40
2022-10-17T11:44:33.508Z,1.60
2022-10-17T11:47:03.070Z,1.60
2022-10-17T11:49:36.847Z,1.40
2022-10-17T11:52:19.473Z,1.50
2022-10-17T11:55:02.503Z,1.20
2022-10-17T11:58:00.718Z,1.70
2022-10-17T12:00:37.927Z,1.63
2022-10-17T12:03:17.246Z,1.50
2022-10-17T12:05:48.230Z,1.60
2022-10-17T12:08:21.493Z,1.50
2022-10-17T12:10:53.463Z,1.60
2022-10-17T12:13:48.849Z,1.97
2022-10-17T12:16:47.491Z,1.47
2022-10-17T12:19:32.695Z,2.00
2022-10-17T12:22:03.680Z,1.43
2022-10-17T12:24:56.506Z,1.80
2022-10-17T12:27:34.686Z,1.50
2022-10-17T12:30:06.335Z,1.73
2022-10-17T12:33:00.033Z,1.80
2022-10-17T12:35:28.504Z,1.70
2022-10-17T12:38:19.784Z,2.50
2022-10-17T12:40:52.751Z,1.67
2022-10-17T12:43:59.207Z,2.00
2022-10-17T12:46:59.369Z,1.60
2022-10-17T12:49:39.707Z,1.80
2022-10-17T12:52:23.823Z,1.70
2022-10-17T12:55:12.103Z,1.83
2022-10-17T12:57:49.813Z,1.60
2022-10-17T13:00:23.340Z,1.43
2022-10-17T13:02:54.599Z,1.40
2022-10-17T13:05:27.925Z,1.80
2022-10-17T13:07:55.994Z,1.47
2022-10-17T13:12:55.129Z,1.60
2022-10-17T13:15:23.243Z,1.60
2022-10-17T13:17:59.170Z,1.80
2022-10-17T13:20:31.541Z,1.40
2022-10-17T13:23:00.000Z,1.63
2022-10-17T13:25:28.425Z,2.10
2022-10-17T13:28:08.337Z,1.80
2022-10-17T13:30:37.385Z,1.50
2022-10-17T13:33:34.008Z,1.60
2022-10-17T13:36:02.555Z,1.83
2022-10-17T13:38:32.448Z,1.80
2022-10-17T13:41:22.910Z,1.60
2022-10-17T13:43:49.133Z,1.60
2022-10-17T13:46:36.729Z,1.77
2022-10-17T13:49:16.475Z,1.80
2022-10-17T13:51:45.315Z,1.63
2022-10-17T13:54:37.517Z,1.70
2022-10-17T13:57:06.149Z,1.83
2022-10-17T13:59:38.793Z,1.83
2022-10-17T14:02:12.588Z,1.50
2022-10-17T14:05:11.730Z,1.50
2022-10-17T14:07:46.339Z,1.90
2022-10-17T14:10:21.755Z,1.70
2022-10-17T14:12:51.160Z,1.83
2022-10-17T14:15:19.708Z,2.00
2022-10-17T14:17:47.830Z,1.50
2022-10-17T14:25:02.172Z,1.70
2022-10-17T14:27:58.170Z,2.00
2022-10-17T14:30:55.662Z,1.90
2022-10-17T14:33:25.246Z,1.93
2022-10-17T14:35:53.406Z,1.67
2022-10-17T14:38:21.508Z,2.17
2022-10-17T14:40:51.114Z,2.27
2022-10-17T14:43:22.608Z,1.93
2022-10-17T14:46:00.534Z,1.97
2022-10-17T14:48:35.005Z,1.80
2022-10-17T14:51:14.212Z,1.90
2022-10-17T14:53:42.521Z,2.03
2022-10-17T14:56:38.162Z,1.80
2022-10-17T14:59:30.030Z,2.70
2022-10-17T15:02:07.434Z,2.20
2022-10-17T15:04:38.830Z,1.90
2022-10-17T15:07:08.025Z,1.80
2022-10-17T15:09:37.247Z,2.40
2022-10-17T15:12:08.414Z,2.07
2022-10-17T15:14:47.175Z,2.30
2022-10-17T15:17:22.604Z,2.47
2022-10-17T15:19:55.501Z,1.97
2022-10-17T15:22:24.928Z,2.20
2022-10-17T15:24:55.317Z,2.40
2022-10-17T15:27:33.675Z,2.40
2022-10-17T15:30:20.669Z,2.50
2022-10-17T15:32:51.584Z,2.43
2022-10-17T15:35:20.298Z,2.73
2022-10-17T15:37:48.463Z,3.03
2022-10-17T15:40:17.827Z,2.67
2022-10-17T15:42:46.116Z,2.70
2022-10-17T15:45:17.135Z,2.60
2022-10-17T15:47:46.063Z,2.80
2022-10-17T15:50:15.749Z,3.03
2022-10-17T15:52:43.901Z,3.10
2022-10-17T15:55:12.207Z,3.07
2022-10-17T15:57:41.465Z,3.10
2022-10-17T16:00:16.807Z,3.30
2022-10-17T16:02:45.059Z,3.00
2022-10-17T16:05:16.162Z,3.27
2022-10-17T16:07:46.193Z,3.53
2022-10-17T16:10:14.557Z,3.10
2022-10-17T16:12:42.743Z,4.10
2022-10-17T16:15:15.837Z,4.07
2022-10-17T16:17:44.661Z,4.50
2022-10-17T16:20:13.542Z,4.60
2022-10-17T16:22:42.339Z,4.07
2022-10-17T16:25:19.562Z,3.70
2022-10-17T16:27:47.866Z,3.63
2022-10-17T16:30:17.700Z,3.70
2022-10-17T16:32:46.204Z,4.20
2022-10-17T16:35:17.672Z,4.53
2022-10-17T16:37:45.871Z,7.70
2022-10-17T16:40:14.147Z,6.17
2022-10-17T16:42:45.042Z,5.70
2022-10-17T16:45:19.273Z,5.63
2022-10-17T16:47:47.759Z,4.57
2022-10-17T16:50:16.458Z,4.70
2022-10-17T16:52:44.674Z,5.63
2022-10-17T16:55:12.983Z,4.60
2022-10-17T16:57:41.169Z,3.90
2022-10-17T17:00:12.047Z,4.50
2022-10-17T17:02:41.576Z,4.10
2022-10-17T17:05:10.180Z,4.80
2022-10-17T17:07:38.278Z,4.80
2022-10-17T17:10:07.418Z,8.17
2022-10-17T17:12:35.618Z,7.03
2022-10-17T17:15:04.266Z,5.00
2022-10-17T17:17:48.782Z,4.93
2022-10-17T17:23:59.942Z,9.43
2022-10-17T17:26:55.763Z,5.07
2022-10-17T17:29:24.711Z,4.70
2022-10-17T17:31:52.887Z,4.27
2022-10-17T17:34:21.084Z,5.17
2022-10-17T17:36:50.717Z,5.03
2022-10-17T17:39:18.821Z,4.73
2022-10-17T17:41:47.271Z,6.57
2022-10-17T17:44:16.796Z,7.10
2022-10-17T17:46:45.935Z,6.07
2022-10-17T17:49:14.066Z,5.00
2022-10-17T17:51:46.311Z,5.13
2022-10-17T17:54:15.967Z,4.83
2022-10-17T17:56:44.625Z,4.90
2022-10-17T17:59:13.855Z,5.03
2022-10-17T18:01:42.018Z,5.87
2022-10-17T18:04:10.249Z,6.23
2022-10-17T18:06:38.689Z,5.70
2022-10-17T18:09:07.531Z,5.47
2022-10-17T18:11:37.392Z,5.80
2022-10-17T18:14:06.492Z,6.00
2022-10-17T18:16:35.528Z,6.07
2022-10-17T18:19:06.705Z,6.47
2022-10-17T18:21:35.312Z,5.57
2022-10-17T18:24:04.591Z,5.93
2022-10-17T18:26:32.832Z,5.57
2022-10-17T18:29:02.417Z,6.37
2022-10-17T18:31:35.636Z,6.40
2022-10-17T18:34:04.701Z,6.10
2022-10-17T18:36:33.749Z,6.83
2022-10-17T18:39:02.080Z,6.17
2022-10-17T18:41:30.289Z,6.23
2022-10-17T18:43:58.495Z,6.40
2022-10-17T18:46:29.602Z,5.90
2022-10-17T18:49:00.056Z,6.00
2022-10-17T18:51:31.439Z,5.57
2022-10-17T18:53:59.660Z,6.10
2022-10-17T18:56:27.817Z,6.00
2022-10-17T18:58:56.161Z,6.17
2022-10-17T19:01:25.592Z,5.63
2022-10-17T19:03:56.682Z,6.30
2022-10-17T19:06:26.232Z,6.20
2022-10-17T19:08:54.747Z,6.50
2022-10-17T19:11:24.042Z,6.30
2022-10-17T19:13:52.338Z,5.90
2022-10-17T19:16:21.907Z,6.10
2022-10-17T19:18:53.478Z,6.63
2022-10-17T19:21:23.201Z,5.70
2022-10-17T19:23:52.511Z,6.30
2022-10-17T19:26:20.763Z,6.70
2022-10-17T19:28:48.995Z,6.30
2022-10-17T19:31:18.127Z,6.23
2022-10-17T19:33:47.009Z,7.13
2022-10-17T19:36:15.143Z,6.33
2022-10-17T19:38:44.721Z,6.17
2022-10-17T19:41:13.820Z,6.70
2022-10-17T19:43:43.097Z,6.63
2022-10-17T19:46:14.268Z,6.37
2022-10-17T19:48:42.474Z,5.97
2022-10-17T19:51:13.532Z,7.17
2022-10-17T19:53:41.818Z,7.03
2022-10-17T19:56:11.685Z,6.70
2022-10-17T19:58:45.422Z,6.00
2022-10-17T20:01:14.794Z,6.37
2022-10-17T20:03:42.943Z,6.50
2022-10-17T20:06:11.283Z,7.30
2022-10-17T20:08:39.673Z,6.73
2022-10-17T20:11:08.641Z,7.40
2022-10-17T20:13:38.529Z,7.00
2022-10-17T20:16:07.498Z,6.47
2022-10-17T20:18:35.689Z,6.20
2022-10-17T20:21:04.608Z,6.53
2022-10-17T20:23:32.725Z,6.97
2022-10-17T20:26:08.108Z,6.83
2022-10-17T20:28:48.837Z,7.17
2022-10-17T20:31:17.170Z,7.27
2022-10-17T20:33:45.366Z,7.03
2022-10-17T20:36:14.608Z,7.07
2022-10-17T20:38:43.032Z,7.40
2022-10-17T20:41:11.269Z,6.60
2022-10-17T20:43:39.536Z,6.50
2022-10-17T20:46:23.284Z,6.70
2022-10-17T20:48:58.502Z,6.40
2022-10-17T20:51:27.218Z,6.40
2022-10-17T20:56:29.539Z,6.50
2022-10-17T20:58:59.039Z,6.80
2022-10-17T21:01:29.062Z,6.53
2022-10-17T21:04:06.081Z,6.43
2022-10-17T21:06:39.233Z,6.70
2022-10-17T21:09:07.468Z,6.43
2022-10-17T21:11:35.636Z,6.53
2022-10-17T21:14:04.674Z,7.10
2022-10-17T21:16:35.834Z,6.63
2022-10-17T21:19:04.321Z,6.90
2022-10-17T21:21:33.849Z,7.27
2022-10-17T21:24:02.665Z,7.70
2022-10-17T21:26:30.836Z,7.90
2022-10-17T21:28:59.102Z,8.83
2022-10-17T21:31:28.038Z,8.53
2022-10-17T21:33:58.630Z,8.40
2022-10-17T21:36:27.247Z,8.83
2022-10-17T21:38:56.653Z,8.47
2022-10-17T21:41:25.516Z,8.10
2022-10-17T21:43:54.487Z,8.50
2022-10-17T21:46:22.934Z,7.60
2022-10-17T21:48:51.819Z,7.97
2022-10-17T21:51:22.518Z,8.10
2022-10-17T21:53:50.953Z,8.20
2022-10-17T21:56:19.889Z,7.93
2022-10-17T21:58:48.129Z,9.27
2022-10-17T22:01:17.582Z,8.93
2022-10-17T22:03:46.919Z,9.50
2022-10-17T22:06:38.839Z,9.20
2022-10-17T22:09:05.623Z,8.37
2022-10-17T22:11:35.064Z,8.13
2022-10-17T22:14:07.325Z,7.90
2022-10-17T22:16:35.832Z,7.93
2022-10-17T22:19:06.424Z,9.23
2022-10-17T22:21:35.231Z,8.57
2022-10-17T22:24:05.893Z,8.40
2022-10-17T22:26:35.457Z,8.43
2022-10-17T22:29:04.441Z,8.07
2022-10-17T22:31:32.673Z,9.03
2022-10-17T22:34:00.838Z,8.37
2022-10-17T22:36:29.310Z,9.17
2022-10-17T22:38:57.402Z,9.10
2022-10-17T22:41:27.327Z,8.43
2022-10-17T22:43:55.496Z,9.43
2022-10-17T22:46:23.601Z,8.03
2022-10-17T22:48:51.782Z,8.97
2022-10-17T22:51:19.948Z,9.00
2022-10-17T22:53:48.115Z,8.27
2022-10-17T22:56:17.429Z,9.37
2022-10-17T22:58:46.939Z,8.57
2022-10-17T23:01:16.001Z,8.47
2022-10-17T23:03:44.197Z,8.87
2022-10-17T23:06:12.454Z,7.47
2022-10-17T23:08:40.966Z,8.83
2022-10-17T23:11:09.087Z,8.23
2022-10-17T23:13:37.259Z,8.53
2022-10-17T23:16:07.079Z,9.47
2022-10-17T23:18:35.178Z,7.83
2022-10-17T23:21:03.273Z,8.23
2022-10-17T23:23:31.684Z,9.30
2022-10-17T23:26:05.285Z,8.23
2022-10-17T23:28:35.579Z,7.90
2022-10-17T23:31:15.999Z,7.57
2022-10-17T23:33:45.173Z,7.97
2022-10-17T23:36:13.804Z,7.97
2022-10-17T23:38:42.642Z,8.50
2022-10-17T23:41:10.847Z,7.30
2022-10-17T23:43:39.046Z,8.40
2022-10-17T23:46:07.460Z,7.40
2022-10-17T23:48:38.525Z,7.60
2022-10-17T23:51:07.544Z,7.93
2022-10-17T23:53:35.857Z,8.03
2022-10-17T23:56:04.002Z,7.47
2022-10-17T23:58:32.505Z,7.63
